Time;durP1;ratioP1;P1;durP2;ratioP2;P2;SDS_P1;SDS_P2;PMS_P1;PMS_P2;Temp;Humidity;BMP_temperature;BMP_pressure;BME280_temperature;BME280_humidity;BME280_pressure;Samples;Min_cycle;Max_cycle;Signal;HPM_P1;HPM_P2
2022/10/27 00:00:33;;;;;;;6.80;3.37;;;13.20;99.90;;;;;;5052612;28;20209;-56
2022/10/27 00:03:00;;;;;;;8.67;3.30;;;13.20;99.90;;;;;;5052272;28;20212;-56
2022/10/27 00:05:27;;;;;;;5.30;3.23;;;13.10;99.90;;;;;;5052703;28;20201;-57
2022/10/27 00:07:54;;;;;;;10.97;3.20;;;13.10;99.90;;;;;;5052773;28;20658;-56
2022/10/27 00:10:21;;;;;;;10.77;3.60;;;13.10;99.90;;;;;;5052279;28;20225;-57
2022/10/27 00:12:48;;;;;;;5.47;3.20;;;13.10;99.90;;;;;;5052556;28;20300;-56
2022/10/27 00:15:15;;;;;;;9.70;3.20;;;13.10;99.90;;;;;;5052748;28;20238;-57
2022/10/27 00:17:43;;;;;;;5.50;3.13;;;13.10;99.90;;;;;;5052768;28;20244;-57
2022/10/27 00:20:11;;;;;;;6.40;3.57;;;13.10;99.90;;;;;;5052625;28;20257;-56
2022/10/27 00:22:38;;;;;;;6.60;2.93;;;13.00;99.90;;;;;;5055690;28;20206;-56
2022/10/27 00:25:06;;;;;;;6.03;3.47;;;13.00;99.90;;;;;;5056728;28;20210;-56
2022/10/27 00:27:33;;;;;;;9.13;3.80;;;13.00;99.90;;;;;;5056202;28;20205;-56
2022/10/27 00:29:59;;;;;;;9.77;3.40;;;12.90;99.90;;;;;;5056104;28;20221;-56
2022/10/27 00:32:26;;;;;;;7.87;3.67;;;12.90;99.90;;;;;;5055524;28;20674;-56
2022/10/27 00:34:55;;;;;;;15.87;3.60;;;12.90;99.90;;;;;;5055757;28;20659;-56
2022/10/27 00:37:24;;;;;;;8.93;3.70;;;12.90;99.90;;;;;;5056000;28;20205;-56
2022/10/27 00:39:51;;;;;;;10.43;3.40;;;12.80;99.90;;;;;;5055840;28;20221;-56
2022/10/27 00:42:18;;;;;;;11.03;3.90;;;12.80;99.90;;;;;;5055342;28;20301;-56
2022/10/27 00:44:46;;;;;;;8.67;3.77;;;12.80;99.90;;;;;;5055696;28;20259;-56
2022/10/27 00:47:20;;;;;;;8.50;3.30;;;12.70;99.90;;;;;;5055644;28;20245;-56
2022/10/27 00:49:55;;;;;;;6.37;3.07;;;12.70;99.90;;;;;;5055547;28;20229;-56
2022/10/27 00:52:29;;;;;;;12.87;3.80;;;12.70;99.90;;;;;;5055071;28;20209;-56
2022/10/27 00:55:00;;;;;;;6.90;3.07;;;12.60;99.90;;;;;;5055477;28;20759;-56
2022/10/27 00:57:28;;;;;;;10.97;3.73;;;12.60;99.90;;;;;;5055375;28;20202;-55
2022/10/27 00:59:55;;;;;;;8.27;3.47;;;12.60;99.90;;;;;;5055604;28;20232;-56
2022/10/27 01:02:22;;;;;;;8.60;3.50;;;12.70;99.90;;;;;;5055090;28;20210;-56
2022/10/27 01:04:52;;;;;;;8.07;3.47;;;12.70;99.90;;;;;;5055334;28;20717;-56
2022/10/27 01:07:21;;;;;;;9.63;3.67;;;12.70;99.90;;;;;;5055694;28;20227;-56
2022/10/27 01:09:49;;;;;;;9.40;3.50;;;12.70;99.90;;;;;;5054964;28;20792;-56
2022/10/27 01:12:16;;;;;;;11.60;3.43;;;12.70;99.90;;;;;;5054665;28;20255;-57
2022/10/27 01:14:44;;;;;;;6.47;3.10;;;12.70;99.90;;;;;;5054900;28;20260;-56
2022/10/27 01:17:21;;;;;;;9.37;3.43;;;12.70;99.90;;;;;;5055191;28;20209;-56
2022/10/27 01:20:36;;;;;;;6.17;3.60;;;12.70;99.90;;;;;;5055089;28;20290;-56
2022/10/27 01:23:11;;;;;;;5.50;3.43;;;12.60;99.90;;;;;;5054668;28;20198;-55
2022/10/27 01:26:06;;;;;;;9.10;3.60;;;12.60;99.90;;;;;;5055218;28;20201;-55
2022/10/27 01:29:13;;;;;;;6.73;3.20;;;12.60;99.90;;;;;;5054714;28;20225;-55
2022/10/27 01:31:48;;;;;;;8.07;3.40;;;12.50;99.90;;;;;;5053666;28;20296;-56
2022/10/27 01:34:22;;;;;;;5.93;3.40;;;12.50;99.90;;;;;;5054602;28;20722;-57
2022/10/27 01:36:55;;;;;;;7.17;3.10;;;12.40;99.90;;;;;;5054804;28;20205;-56
2022/10/27 01:39:31;;;;;;;8.97;3.03;;;12.40;99.90;;;;;;5054643;28;20312;-55
2022/10/27 01:42:02;;;;;;;3.90;2.90;;;12.30;99.90;;;;;;5054372;28;20209;-55
2022/10/27 01:44:33;;;;;;;8.70;3.20;;;12.20;99.90;;;;;;5054922;28;20223;-56
2022/10/27 01:47:03;;;;;;;5.77;2.70;;;12.10;99.90;;;;;;5054684;28;20692;-56
2022/10/27 01:49:35;;;;;;;5.50;2.67;;;12.10;99.90;;;;;;5068641;22;20229;-59
2022/10/27 01:52:06;;;;;;;7.57;2.90;;;12.10;99.90;;;;;;5052897;28;20282;-59
2022/10/27 01:54:35;;;;;;;5.77;3.00;;;12.00;99.90;;;;;;5053772;28;20237;-60
2022/10/27 01:57:22;;;;;;;6.33;3.07;;;12.00;99.90;;;;;;5053887;28;20202;-60
2022/10/27 02:00:00;;;;;;;6.23;3.30;;;12.00;99.90;;;;;;5053675;28;20225;-60
2022/10/27 02:02:34;;;;;;;8.07;3.03;;;11.90;99.90;;;;;;5053210;28;20206;-61
2022/10/27 02:05:06;;;;;;;8.27;3.50;;;11.90;99.90;;;;;;5054428;28;20208;-59
2022/10/27 02:07:42;;;;;;;6.00;2.80;;;11.90;99.90;;;;;;5053721;28;20238;-59
2022/10/27 02:10:16;;;;;;;7.53;3.07;;;11.90;99.90;;;;;;5053351;28;20221;-59
2022/10/27 02:12:45;;;;;;;6.43;3.03;;;11.80;99.90;;;;;;5052961;28;20263;-61
2022/10/27 02:15:19;;;;;;;9.77;3.00;;;11.80;99.90;;;;;;5053405;28;20257;-60
2022/10/27 02:17:48;;;;;;;9.33;3.50;;;11.80;99.90;;;;;;5053381;28;20588;-61
2022/10/27 02:20:21;;;;;;;9.07;3.40;;;11.80;99.90;;;;;;5053171;28;20237;-61
2022/10/27 02:22:50;;;;;;;6.73;3.00;;;11.80;99.90;;;;;;5052461;28;20596;-60
2022/10/27 02:25:18;;;;;;;8.73;3.63;;;11.80;99.90;;;;;;5052719;28;20251;-61
2022/10/27 02:27:48;;;;;;;8.03;3.27;;;11.90;99.90;;;;;;5053123;28;20229;-60
2022/10/27 02:30:15;;;;;;;8.10;4.03;;;11.90;99.90;;;;;;5052850;28;20228;-61
2022/10/27 02:32:42;;;;;;;8.17;3.57;;;11.90;99.90;;;;;;5052154;28;20209;-61
2022/10/27 02:35:11;;;;;;;4.87;3.57;;;12.00;99.90;;;;;;5052753;28;20253;-59
2022/10/27 02:37:41;;;;;;;7.63;3.63;;;11.90;99.90;;;;;;5052826;28;20209;-58
2022/10/27 02:40:09;;;;;;;4.70;3.43;;;11.90;99.90;;;;;;5052654;28;20240;-59
2022/10/27 02:42:36;;;;;;;7.33;3.60;;;12.00;99.90;;;;;;5052626;28;20281;-59
2022/10/27 02:45:03;;;;;;;9.87;3.80;;;12.00;99.90;;;;;;5051958;28;20670;-59
2022/10/27 02:47:29;;;;;;;7.33;3.70;;;12.00;99.90;;;;;;5052758;28;20213;-59
2022/10/27 02:49:57;;;;;;;6.17;4.07;;;11.90;99.90;;;;;;5052729;28;20567;-59
2022/10/27 02:52:25;;;;;;;7.53;4.00;;;11.90;99.90;;;;;;5051753;28;20216;-60
2022/10/27 02:54:52;;;;;;;8.10;3.70;;;12.00;99.90;;;;;;5052395;28;20229;-59
2022/10/27 02:57:19;;;;;;;6.53;3.90;;;12.00;99.90;;;;;;5052518;28;20270;-59
2022/10/27 02:59:46;;;;;;;8.37;4.00;;;12.00;99.90;;;;;;5052327;28;20234;-59
2022/10/27 03:02:12;;;;;;;11.97;5.10;;;11.90;99.90;;;;;;5051685;28;20212;-59
2022/10/27 03:04:39;;;;;;;11.67;4.70;;;11.90;99.90;;;;;;5052367;28;20209;-59
2022/10/27 03:07:06;;;;;;;8.30;4.17;;;11.90;99.90;;;;;;5052261;28;20590;-59
2022/10/27 03:09:34;;;;;;;7.93;4.00;;;11.90;99.90;;;;;;5052549;28;20234;-59
2022/10/27 03:12:01;;;;;;;8.17;4.33;;;11.90;99.90;;;;;;5051974;28;20209;-59
2022/10/27 03:14:27;;;;;;;9.67;7.20;;;11.90;99.90;;;;;;5052231;28;20574;-60
2022/10/27 03:16:54;;;;;;;11.10;5.60;;;11.90;99.90;;;;;;5052264;28;20209;-60
2022/10/27 03:19:21;;;;;;;10.60;7.10;;;11.90;99.90;;;;;;5052221;28;20237;-59
2022/10/27 03:21:48;;;;;;;8.87;5.90;;;11.80;99.90;;;;;;5051477;28;20291;-60
2022/10/27 03:24:14;;;;;;;6.87;4.00;;;11.80;99.90;;;;;;5051842;28;20677;-59
2022/10/27 03:26:42;;;;;;;6.37;3.40;;;11.80;99.90;;;;;;5052015;28;20205;-59
2022/10/27 03:29:09;;;;;;;7.53;3.33;;;11.80;99.90;;;;;;5051934;28;20578;-59
2022/10/27 03:31:36;;;;;;;10.53;4.47;;;11.70;99.90;;;;;;5051213;28;20209;-59
2022/10/27 03:34:02;;;;;;;7.77;5.10;;;11.70;99.90;;;;;;5051793;28;20691;-59
2022/10/27 03:36:29;;;;;;;7.83;3.93;;;11.60;99.90;;;;;;5051431;28;20229;-59
2022/10/27 03:38:56;;;;;;;10.30;7.17;;;11.60;99.90;;;;;;5051334;28;20602;-59
2022/10/27 03:41:22;;;;;;;8.97;4.00;;;11.60;99.90;;;;;;5051180;28;20267;-59
2022/10/27 03:43:51;;;;;;;5.67;2.93;;;11.50;99.90;;;;;;5051613;28;20212;-59
2022/10/27 03:46:17;;;;;;;6.53;3.53;;;11.50;99.90;;;;;;5051542;28;20202;-59
2022/10/27 03:48:44;;;;;;;7.30;3.70;;;11.50;99.90;;;;;;5051337;28;20688;-59
2022/10/27 03:51:11;;;;;;;5.23;3.43;;;11.50;99.90;;;;;;5051223;28;20213;-59
2022/10/27 03:53:37;;;;;;;7.77;3.47;;;11.50;99.90;;;;;;5051821;28;20202;-59
2022/10/27 03:56:04;;;;;;;4.03;3.20;;;11.50;99.90;;;;;;5053475;28;20233;-61
2022/10/27 03:58:31;;;;;;;6.07;3.93;;;11.50;99.90;;;;;;5055635;28;20205;-60
2022/10/27 04:01:02;;;;;;;8.80;3.70;;;11.50;99.90;;;;;;5054928;28;20216;-59
2022/10/27 04:03:29;;;;;;;7.93;3.37;;;11.50;99.90;;;;;;5055407;28;20205;-60
2022/10/27 04:05:56;;;;;;;5.73;3.53;;;11.40;99.90;;;;;;5055671;28;20206;-60
2022/10/27 04:08:22;;;;;;;8.03;4.87;;;11.30;99.90;;;;;;5055452;28;20209;-60
2022/10/27 04:10:49;;;;;;;20.73;10.60;;;11.40;99.90;;;;;;5055500;28;20214;-60
2022/10/27 04:13:16;;;;;;;18.80;11.57;;;11.40;99.90;;;;;;5054722;28;20202;-60
2022/10/27 04:15:43;;;;;;;6.73;4.17;;;11.50;99.90;;;;;;5055120;28;20244;-60
2022/10/27 04:18:11;;;;;;;9.03;3.70;;;11.40;99.90;;;;;;5055425;28;20206;-60
2022/10/27 04:20:38;;;;;;;7.83;3.63;;;11.40;99.90;;;;;;5055261;28;20435;-60
2022/10/27 04:23:05;;;;;;;8.10;3.80;;;11.40;99.90;;;;;;5054475;28;20700;-59
2022/10/27 04:25:31;;;;;;;6.83;3.53;;;11.40;99.90;;;;;;5055055;28;20202;-61
2022/10/27 04:28:02;;;;;;;7.70;3.17;;;11.30;99.90;;;;;;5054985;28;20217;-60
2022/10/27 04:30:29;;;;;;;6.10;3.40;;;11.40;99.90;;;;;;5054941;28;20272;-60
2022/10/27 04:32:56;;;;;;;8.57;4.47;;;11.40;99.90;;;;;;5054546;28;20205;-60
2022/10/27 04:35:24;;;;;;;8.43;3.87;;;11.40;99.90;;;;;;5054933;28;20225;-60
2022/10/27 04:37:50;;;;;;;5.50;3.83;;;11.50;99.90;;;;;;5055041;28;20212;-60
2022/10/27 04:40:17;;;;;;;9.23;3.50;;;11.40;99.90;;;;;;5054751;28;20229;-60
2022/10/27 04:42:45;;;;;;;6.27;3.50;;;11.40;99.90;;;;;;5054347;28;20213;-60
2022/10/27 04:45:12;;;;;;;9.23;3.83;;;11.40;99.90;;;;;;5054632;28;20198;-60
2022/10/27 04:47:39;;;;;;;7.60;3.67;;;11.50;99.90;;;;;;5054968;28;20237;-61
2022/10/27 04:50:06;;;;;;;10.07;6.30;;;11.50;99.90;;;;;;5054420;28;20238;-60
2022/10/27 04:52:34;;;;;;;9.33;4.37;;;11.50;99.90;;;;;;5054009;28;20673;-60
2022/10/27 04:55:01;;;;;;;9.93;4.40;;;11.60;99.90;;;;;;5054416;28;20217;-59
2022/10/27 04:57:27;;;;;;;11.97;5.00;;;11.60;99.90;;;;;;5054448;28;20217;-60
2022/10/27 04:59:54;;;;;;;8.40;4.70;;;11.60;99.90;;;;;;5054556;28;20308;-59
2022/10/27 05:02:21;;;;;;;11.03;5.77;;;11.60;99.90;;;;;;5053758;28;20210;-60
2022/10/27 05:04:47;;;;;;;14.00;5.57;;;11.60;99.90;;;;;;5054329;28;20201;-60
2022/10/27 05:07:14;;;;;;;13.97;5.37;;;11.60;99.90;;;;;;5053331;28;20205;-61
2022/10/27 05:09:42;;;;;;;12.63;5.80;;;11.60;99.90;;;;;;5053635;28;20252;-60
2022/10/27 05:12:09;;;;;;;7.30;3.90;;;11.60;99.90;;;;;;5053373;28;20206;-60
2022/10/27 05:14:36;;;;;;;7.03;4.57;;;11.50;99.90;;;;;;5054171;28;20206;-60
2022/10/27 05:17:02;;;;;;;9.50;4.23;;;11.50;99.90;;;;;;5054399;28;20256;-60
2022/10/27 05:19:29;;;;;;;12.67;4.20;;;11.50;99.90;;;;;;5054204;28;20721;-60
2022/10/27 05:21:56;;;;;;;9.00;4.60;;;11.40;99.90;;;;;;5053831;28;20201;-59
2022/10/27 05:24:22;;;;;;;8.23;5.07;;;11.40;99.90;;;;;;5053975;28;20628;-59
2022/10/27 05:26:50;;;;;;;10.40;3.93;;;11.30;99.90;;;;;;5054174;28;20209;-59
2022/10/27 05:29:17;;;;;;;7.23;3.83;;;11.30;99.90;;;;;;5054024;28;20232;-59
2022/10/27 05:31:44;;;;;;;5.70;3.80;;;11.30;99.90;;;;;;5053327;28;20210;-59
2022/10/27 05:34:10;;;;;;;7.73;3.87;;;11.30;99.90;;;;;;5053856;28;20212;-59
2022/10/27 05:36:37;;;;;;;7.53;3.93;;;11.30;99.90;;;;;;5053725;28;20222;-60
2022/10/27 05:39:04;;;;;;;6.80;4.13;;;11.30;99.90;;;;;;5053681;28;20229;-59
2022/10/27 05:41:31;;;;;;;10.80;6.03;;;11.20;99.90;;;;;;5053420;28;20217;-59
2022/10/27 05:43:59;;;;;;;7.20;4.23;;;11.20;99.90;;;;;;5053943;28;20603;-59
2022/10/27 05:46:25;;;;;;;9.30;3.83;;;11.20;99.90;;;;;;5053747;28;20205;-60
2022/10/27 05:48:52;;;;;;;8.10;4.83;;;11.20;99.90;;;;;;5053609;28;20606;-59
2022/10/27 05:51:19;;;;;;;8.90;4.00;;;11.30;99.90;;;;;;5053007;28;20210;-59
2022/10/27 05:53:50;;;;;;;11.27;4.10;;;11.30;99.90;;;;;;5053406;28;20210;-60
2022/10/27 05:56:16;;;;;;;9.97;4.30;;;11.30;99.90;;;;;;5053408;28;20230;-60
2022/10/27 05:58:43;;;;;;;8.87;4.20;;;11.30;99.90;;;;;;5053433;28;20233;-59
2022/10/27 06:01:11;;;;;;;12.57;4.23;;;11.30;99.90;;;;;;5052644;28;20628;-59
2022/10/27 06:03:38;;;;;;;9.77;4.83;;;11.40;99.90;;;;;;5053180;28;20202;-59
2022/10/27 06:06:05;;;;;;;11.30;4.53;;;11.40;99.90;;;;;;5053116;28;20580;-59
2022/10/27 06:08:32;;;;;;;9.80;4.37;;;11.40;99.90;;;;;;5053065;28;20574;-60
2022/10/27 06:10:59;;;;;;;9.53;4.63;;;11.50;99.90;;;;;;5053239;28;20217;-59
2022/10/27 06:13:26;;;;;;;12.77;4.70;;;11.50;99.90;;;;;;5052653;28;20213;-60
2022/10/27 06:15:52;;;;;;;8.13;4.80;;;11.60;99.90;;;;;;5052623;28;20685;-59
2022/10/27 06:18:20;;;;;;;10.00;4.20;;;11.60;99.90;;;;;;5052399;28;20217;-60
2022/10/27 06:20:47;;;;;;;6.37;3.87;;;11.70;99.90;;;;;;5052678;28;20206;-59
2022/10/27 06:23:14;;;;;;;6.27;3.93;;;11.70;99.90;;;;;;5052175;28;20681;-60
2022/10/27 06:25:41;;;;;;;9.43;4.33;;;11.80;99.90;;;;;;5052676;28;20201;-58
2022/10/27 06:28:08;;;;;;;5.67;4.10;;;11.80;99.90;;;;;;5052848;28;20205;-59
2022/10/27 06:30:34;;;;;;;9.67;4.10;;;11.90;99.90;;;;;;5052564;28;20709;-60
2022/10/27 06:33:01;;;;;;;15.97;4.80;;;11.90;99.90;;;;;;5051800;28;20673;-60
2022/10/27 06:35:29;;;;;;;13.70;4.47;;;12.00;99.90;;;;;;5052457;28;20236;-62
2022/10/27 06:37:56;;;;;;;10.80;5.03;;;12.00;99.90;;;;;;5046935;28;20213;-59
2022/10/27 06:40:23;;;;;;;9.90;4.77;;;12.00;99.90;;;;;;5051441;28;20576;-60
2022/10/27 06:42:50;;;;;;;11.37;5.13;;;12.00;99.90;;;;;;5049975;28;20210;-59
2022/10/27 06:45:17;;;;;;;7.53;4.63;;;12.10;99.90;;;;;;5051394;28;20205;-58
2022/10/27 06:47:44;;;;;;;7.17;4.33;;;12.60;99.90;;;;;;5051026;28;20233;-58
2022/10/27 06:50:12;;;;;;;10.00;4.50;;;13.40;99.90;;;;;;5050848;28;20241;-58
2022/10/27 06:52:40;;;;;;;4.73;3.10;;;14.10;99.90;;;;;;5049992;28;20221;-58
2022/10/27 06:55:08;;;;;;;6.50;3.17;;;14.70;99.90;;;;;;5050923;28;20216;-57
2022/10/27 06:57:40;;;;;;;5.97;3.03;;;15.00;99.90;;;;;;5050898;28;20236;-57
2022/10/27 07:00:08;;;;;;;6.20;2.60;;;15.00;99.90;;;;;;5051160;28;20252;-58
2022/10/27 07:02:35;;;;;;;9.70;2.80;;;14.90;99.90;;;;;;5049665;28;20289;-57
2022/10/27 07:05:01;;;;;;;5.47;2.70;;;14.70;99.90;;;;;;5050933;28;20209;-58
2022/10/27 07:07:28;;;;;;;9.87;3.87;;;14.50;99.90;;;;;;5050993;28;20213;-58
2022/10/27 07:09:56;;;;;;;3.83;2.87;;;14.20;99.90;;;;;;5051303;28;20225;-58
2022/10/27 07:12:23;;;;;;;7.43;3.17;;;14.00;99.90;;;;;;5049744;28;20209;-57
2022/10/27 07:14:50;;;;;;;7.80;3.80;;;13.70;99.90;;;;;;5051163;28;20213;-58
2022/10/27 07:17:16;;;;;;;6.77;3.17;;;13.70;99.90;;;;;;5050478;28;20225;-57
2022/10/27 07:19:43;;;;;;;8.70;4.00;;;13.40;99.90;;;;;;5050927;28;20222;-58
2022/10/27 07:22:10;;;;;;;7.40;3.80;;;13.30;99.90;;;;;;5049976;28;20728;-58
2022/10/27 07:24:36;;;;;;;8.80;3.40;;;13.30;99.90;;;;;;5050915;28;20209;-58
2022/10/27 07:27:04;;;;;;;7.90;3.80;;;13.40;99.90;;;;;;5050854;28;20209;-68
2022/10/27 07:29:31;;;;;;;9.37;4.13;;;13.50;99.90;;;;;;5050277;28;20229;-62
2022/10/27 07:31:58;;;;;;;9.03;3.67;;;13.50;99.90;;;;;;5049546;28;20213;-63
2022/10/27 07:34:24;;;;;;;7.03;4.00;;;13.50;99.90;;;;;;5050527;28;20620;-63
2022/10/27 07:36:51;;;;;;;5.17;3.67;;;13.50;99.90;;;;;;5050695;28;20237;-63
2022/10/27 07:39:18;;;;;;;7.67;4.00;;;13.50;99.90;;;;;;5050681;28;20237;-63
2022/10/27 07:41:45;;;;;;;6.43;3.57;;;13.40;99.90;;;;;;5049856;28;20573;-63
2022/10/27 07:44:13;;;;;;;8.23;4.20;;;13.50;99.90;;;;;;5049905;28;20201;-59
2022/10/27 07:46:39;;;;;;;7.23;3.83;;;13.50;99.90;;;;;;5050666;28;20574;-60
2022/10/27 07:49:06;;;;;;;8.97;4.23;;;13.50;99.90;;;;;;5051130;28;20241;-64
2022/10/27 07:51:33;;;;;;;10.50;4.13;;;13.60;99.90;;;;;;5050031;28;20220;-61
2022/10/27 07:53:59;;;;;;;11.50;4.03;;;13.70;99.90;;;;;;5049663;28;20259;-64
2022/10/27 07:56:26;;;;;;;10.57;4.40;;;13.80;99.90;;;;;;5050964;28;20619;-61
2022/10/27 07:58:53;;;;;;;11.63;4.00;;;13.90;99.90;;;;;;5050304;28;20233;-61
2022/10/27 08:01:21;;;;;;;11.97;3.97;;;14.00;99.90;;;;;;5050322;28;20205;-60
2022/10/27 08:03:48;;;;;;;9.13;3.70;;;14.10;99.90;;;;;;5050116;28;20209;-60
2022/10/27 08:06:15;;;;;;;8.20;3.97;;;14.10;99.90;;;;;;5050236;28;20266;-59
2022/10/27 08:08:42;;;;;;;9.70;3.80;;;14.20;99.90;;;;;;5050434;28;20225;-60
2022/10/27 08:11:08;;;;;;;7.37;3.90;;;14.20;99.90;;;;;;5050381;28;20206;-60
2022/10/27 08:13:35;;;;;;;9.70;5.00;;;14.30;99.90;;;;;;5049378;28;20224;-59
2022/10/27 08:16:02;;;;;;;5.83;3.50;;;14.50;99.90;;;;;;5050622;28;20209;-61
2022/10/27 08:18:30;;;;;;;6.57;3.37;;;14.70;99.90;;;;;;5050171;28;20217;-60
2022/10/27 08:20:56;;;;;;;6.43;3.97;;;14.90;99.90;;;;;;5050467;28;20205;-60
2022/10/27 08:23:24;;;;;;;8.77;5.37;;;15.00;99.90;;;;;;5048961;28;20708;-60
2022/10/27 08:25:51;;;;;;;7.97;3.90;;;15.20;99.90;;;;;;5050157;28;20263;-60
2022/10/27 08:28:18;;;;;;;5.50;4.13;;;15.40;99.90;;;;;;5050087;28;20685;-60
2022/10/27 08:30:45;;;;;;;10.17;4.33;;;15.50;99.90;;;;;;5049821;28;20213;-61
2022/10/27 08:33:12;;;;;;;11.00;5.00;;;15.60;99.90;;;;;;5048786;28;20214;-61
2022/10/27 08:35:41;;;;;;;4.77;3.87;;;15.80;99.90;;;;;;5050187;28;20304;-61
2022/10/27 08:38:10;;;;;;;10.60;3.87;;;15.90;99.90;;;;;;5050117;28;20253;-61
2022/10/27 08:40:47;;;;;;;9.50;4.03;;;16.00;99.90;;;;;;5050142;28;20233;-61
2022/10/27 08:43:44;;;;;;;11.07;4.20;;;16.10;99.90;;;;;;5050834;28;20210;-61
2022/10/27 08:46:19;;;;;;;8.00;4.17;;;16.30;99.90;;;;;;5046197;28;20213;-61
2022/10/27 08:48:48;;;;;;;12.57;4.85;;;16.40;99.90;;;;;;5033658;28;20320;-62
2022/10/27 08:51:21;;;;;;;10.32;4.50;;;16.50;99.90;;;;;;5033809;28;20206;-60
2022/10/27 08:53:51;;;;;;;8.60;4.70;;;16.60;99.90;;;;;;5032780;28;20202;-61
2022/10/27 08:56:20;;;;;;;7.70;4.33;;;16.70;99.90;;;;;;5033334;28;20217;-65
2022/10/27 08:58:48;;;;;;;11.15;4.43;;;16.80;99.90;;;;;;5033763;28;20248;-64
2022/10/27 09:01:23;;;;;;;12.03;4.53;;;17.00;99.90;;;;;;5033729;28;20218;-63
2022/10/27 09:04:05;;;;;;;13.95;4.75;;;17.10;99.90;;;;;;5034003;28;20212;-64
2022/10/27 09:06:38;;;;;;;8.57;4.13;;;17.20;99.90;;;;;;5035157;28;20206;-63
2022/10/27 09:09:12;;;;;;;10.55;4.45;;;17.30;99.90;;;;;;5034305;28;20237;-62
2022/10/27 09:11:48;;;;;;;8.07;4.10;;;17.50;99.90;;;;;;5033291;28;20206;-63
2022/10/27 09:14:37;;;;;;;7.28;3.88;;;17.60;99.90;;;;;;5033612;28;20589;-63
2022/10/27 09:17:11;;;;;;;8.52;4.05;;;17.70;99.90;;;;;;5033748;28;20218;-63
2022/10/27 09:19:43;;;;;;;14.38;4.13;;;17.90;99.90;;;;;;5033727;28;20240;-64
2022/10/27 09:22:16;;;;;;;11.55;3.95;;;18.00;99.90;;;;;;5032992;28;20225;-62
2022/10/27 09:24:43;;;;;;;8.93;4.03;;;18.10;99.90;;;;;;5033811;28;20213;-65
2022/10/27 09:27:13;;;;;;;13.60;4.30;;;18.30;99.90;;;;;;5033764;28;20689;-68
2022/10/27 09:29:42;;;;;;;11.93;4.22;;;18.40;99.90;;;;;;5034234;28;20657;-63
2022/10/27 09:32:16;;;;;;;11.88;4.18;;;18.60;99.90;;;;;;5033593;28;20202;-64
2022/10/27 09:34:46;;;;;;;7.97;4.20;;;18.70;99.90;;;;;;5032803;28;20218;-66
2022/10/27 09:37:16;;;;;;;14.27;4.10;;;18.80;99.90;;;;;;5033198;28;20681;-64
2022/10/27 09:39:46;;;;;;;11.15;4.25;;;18.90;99.90;;;;;;5033169;28;20596;-66
2022/10/27 09:42:13;;;;;;;7.35;3.65;;;19.00;99.90;;;;;;5044080;28;20218;-64
2022/10/27 09:44:44;;;;;;;9.00;3.55;;;19.10;99.90;;;;;;5052585;28;20206;-66
2022/10/27 09:47:10;;;;;;;7.75;3.90;;;19.30;99.90;;;;;;5049450;28;20201;-63
2022/10/27 09:49:40;;;;;;;11.98;4.28;;;19.30;99.90;;;;;;5052722;28;20253;-60
2022/10/27 09:52:11;;;;;;;16.90;3.85;;;19.30;99.90;;;;;;5051796;28;20202;-62
2022/10/27 09:54:41;;;;;;;7.40;3.90;;;19.30;99.90;;;;;;5051554;28;20297;-61
2022/10/27 09:57:11;;;;;;;7.97;4.75;;;19.40;99.90;;;;;;5052389;28;20241;-62
2022/10/27 09:59:38;;;;;;;8.00;3.97;;;19.40;99.90;;;;;;5052585;28;20226;-62
2022/10/27 10:02:22;;;;;;;11.15;3.72;;;19.60;99.90;;;;;;5052205;28;20206;-62
2022/10/27 10:04:49;;;;;;;12.95;4.00;;;19.80;99.90;;;;;;5051918;28;20205;-61
2022/10/27 10:07:30;;;;;;;13.05;5.43;;;20.00;99.90;;;;;;5052285;28;20197;-61
2022/10/27 10:10:04;;;;;;;9.50;3.80;;;20.00;99.90;;;;;;5051000;28;20229;-62
2022/10/27 10:12:31;;;;;;;8.32;3.17;;;20.20;99.90;;;;;;5051796;28;20206;-60
2022/10/27 10:15:19;;;;;;;9.90;3.30;;;20.30;99.90;;;;;;5050993;28;20209;-61
2022/10/27 10:17:55;;;;;;;10.98;2.95;;;20.30;99.90;;;;;;5051727;28;20221;-61
2022/10/27 10:20:31;;;;;;;9.98;2.65;;;20.50;99.90;;;;;;5051503;28;20225;-61
2022/10/27 10:22:59;;;;;;;6.00;2.80;;;20.60;99.90;;;;;;5051204;28;20285;-61
2022/10/27 10:25:29;;;;;;;9.43;3.22;;;20.80;99.90;;;;;;5051553;28;20255;-61
2022/10/27 10:27:59;;;;;;;10.35;2.72;;;21.00;99.90;;;;;;5051673;28;20202;-61
2022/10/27 10:30:27;;;;;;;14.13;3.10;;;21.20;99.90;;;;;;5051889;28;20373;-62
2022/10/27 10:32:56;;;;;;;11.73;2.65;;;21.30;99.90;;;;;;5050374;28;20236;-62
2022/10/27 10:35:44;;;;;;;10.10;2.75;;;21.40;99.90;;;;;;5051481;28;20275;-61
2022/10/27 10:38:33;;;;;;;9.82;2.83;;;21.50;99.90;;;;;;5051271;28;20233;-61
2022/10/27 10:41:10;;;;;;;7.78;2.50;;;21.60;99.90;;;;;;5051809;28;20201;-61
2022/10/27 10:43:37;;;;;;;9.13;2.60;;;21.80;99.90;;;;;;5050562;28;20205;-61
2022/10/27 10:46:05;;;;;;;8.60;2.78;;;21.80;99.90;;;;;;5050524;28;20267;-62
2022/10/27 10:48:38;;;;;;;10.13;2.42;;;21.90;99.90;;;;;;5051160;28;20214;-63
2022/10/27 10:51:07;;;;;;;11.63;2.88;;;22.00;99.90;;;;;;5051447;28;20579;-63
2022/10/27 10:53:38;;;;;;;11.40;2.60;;;22.00;99.90;;;;;;5050375;28;20220;-63
2022/10/27 10:56:19;;;;;;;8.85;2.47;;;22.00;99.90;;;;;;5050913;28;20246;-62
2022/10/27 10:58:48;;;;;;;12.18;2.88;;;22.10;99.90;;;;;;5050894;28;20668;-60
2022/10/27 11:01:15;;;;;;;9.77;3.17;;;22.20;99.90;;;;;;5051262;28;20202;-61
2022/10/27 11:03:45;;;;;;;7.68;2.70;;;22.30;99.90;;;;;;5050298;28;20251;-61
2022/10/27 11:06:19;;;;;;;9.82;2.97;;;22.30;99.90;;;;;;5049364;28;20236;-62
2022/10/27 11:08:56;;;;;;;9.18;2.30;;;22.50;99.90;;;;;;5051109;28;20249;-61
2022/10/27 11:11:28;;;;;;;8.25;2.92;;;22.40;99.90;;;;;;5050960;28;20658;-62
2022/10/27 11:13:59;;;;;;;8.45;3.08;;;22.50;99.90;;;;;;5049943;28;20209;-63
2022/10/27 11:16:27;;;;;;;9.40;2.67;;;22.70;99.90;;;;;;5050634;28;20461;-61
2022/10/27 11:18:58;;;;;;;13.07;2.60;;;22.80;99.90;;;;;;5050473;28;20245;-61
2022/10/27 11:21:31;;;;;;;5.18;2.47;;;22.80;99.90;;;;;;5050563;28;20212;-60
2022/10/27 11:24:01;;;;;;;6.95;2.30;;;23.00;99.90;;;;;;5049548;28;20217;-61
2022/10/27 11:26:33;;;;;;;8.10;2.47;;;23.20;99.90;;;;;;5050345;28;20213;-60
2022/10/27 11:29:10;;;;;;;6.60;2.25;;;23.30;99.90;;;;;;5050656;28;20244;-60
2022/10/27 11:31:43;;;;;;;5.35;2.38;;;23.20;99.90;;;;;;5050705;28;20213;-60
2022/10/27 11:34:19;;;;;;;8.50;2.58;;;23.10;99.90;;;;;;5050278;28;20212;-61
2022/10/27 11:36:51;;;;;;;7.28;2.60;;;23.20;99.90;;;;;;5050683;28;20205;-60
2022/10/27 11:39:21;;;;;;;11.00;2.47;;;23.40;99.90;;;;;;5050786;28;20225;-60
2022/10/27 11:41:52;;;;;;;8.85;2.85;;;23.40;99.90;;;;;;5049676;28;20209;-60
2022/10/27 11:44:27;;;;;;;10.90;2.33;;;23.50;99.90;;;;;;5050274;28;20206;-60
2022/10/27 11:46:59;;;;;;;10.00;2.83;;;23.60;99.90;;;;;;5049309;28;20201;-61
2022/10/27 11:49:33;;;;;;;9.57;2.90;;;23.70;99.90;;;;;;5050194;28;20720;-61
2022/10/27 11:52:07;;;;;;;10.23;2.80;;;23.70;99.90;;;;;;5049887;28;20209;-60
2022/10/27 11:54:33;;;;;;;7.95;2.50;;;23.80;99.90;;;;;;5050060;28;20263;-60
2022/10/27 11:57:13;;;;;;;7.90;2.78;;;23.90;99.90;;;;;;5049968;28;20678;-60
2022/10/27 11:59:54;;;;;;;9.18;2.30;;;24.00;99.90;;;;;;5050338;28;20316;-60
2022/10/27 12:02:37;;;;;;;6.78;2.50;;;24.00;99.90;;;;;;5049881;28;20209;-61
2022/10/27 12:05:09;;;;;;;6.63;2.20;;;24.10;99.90;;;;;;5050737;28;20216;-65
2022/10/27 12:07:50;;;;;;;11.23;2.72;;;24.20;99.90;;;;;;5050283;28;20292;-61
2022/10/27 12:10:27;;;;;;;5.70;2.00;;;24.30;99.90;;;;;;5050635;28;20294;-60
2022/10/27 12:13:01;;;;;;;8.32;2.40;;;24.30;99.90;;;;;;5049038;28;20205;-59
2022/10/27 12:15:36;;;;;;;7.90;2.30;;;24.30;99.90;;;;;;5050398;28;20209;-59
2022/10/27 12:18:11;;;;;;;8.60;2.63;;;24.30;99.90;;;;;;5053515;28;20267;-59
2022/10/27 12:20:44;;;;;;;7.47;2.45;;;24.30;99.90;;;;;;5054004;28;20225;-59
2022/10/27 12:23:16;;;;;;;8.52;2.92;;;24.30;99.90;;;;;;5052680;28;20213;-59
2022/10/27 12:25:49;;;;;;;9.27;2.50;;;24.40;99.90;;;;;;5053680;28;20229;-59
2022/10/27 12:28:19;;;;;;;7.97;2.22;;;24.50;99.90;;;;;;5053568;28;20247;-59
2022/10/27 12:30:48;;;;;;;8.20;2.38;;;24.50;99.90;;;;;;5053789;28;20229;-59
2022/10/27 12:33:22;;;;;;;7.80;2.55;;;24.60;99.90;;;;;;5052893;28;20213;-59
2022/10/27 12:35:54;;;;;;;7.82;2.22;;;24.50;99.90;;;;;;5053239;28;20648;-58
2022/10/27 12:38:27;;;;;;;5.68;2.05;;;24.30;99.90;;;;;;5053209;28;20235;-59
2022/10/27 12:41:00;;;;;;;9.23;2.30;;;24.30;99.90;;;;;;5053790;28;20221;-59
2022/10/27 12:43:36;;;;;;;6.97;2.10;;;24.40;99.90;;;;;;5052499;28;20220;-59
2022/10/27 12:46:23;;;;;;;7.90;2.22;;;24.50;99.90;;;;;;5053103;28;20197;-59
2022/10/27 12:48:55;;;;;;;10.65;2.58;;;24.70;99.90;;;;;;5052924;28;20229;-59
2022/10/27 12:51:32;;;;;;;9.20;2.47;;;24.80;99.90;;;;;;5053826;28;20534;-59
2022/10/27 12:54:05;;;;;;;13.05;2.33;;;24.90;99.90;;;;;;5052353;28;20209;-59
2022/10/27 12:56:42;;;;;;;8.07;2.33;;;25.00;99.90;;;;;;5053311;28;20233;-59